sensor_id;sensor_type;location;lat;lon;timestamp;pressure;altitude;pressure_sealevel;temperature;humidity
25638;BME280;13496;51.040;13.680;2023-01-31T00:03:58;99697.50;;;14.67;50.37
25638;BME280;13496;51.040;13.680;2023-01-31T00:09:01;99685.09;;;14.69;50.45
25638;BME280;13496;51.040;13.680;2023-01-31T00:14:04;99681.00;;;14.67;48.31
25638;BME280;13496;51.040;13.680;2023-01-31T00:19:06;99693.94;;;14.68;50.41
25638;BME280;13496;51.040;13.680;2023-01-31T00:24:13;99712.66;;;14.72;51.17
25638;BME280;13496;51.040;13.680;2023-01-31T00:29:15;99692.44;;;14.66;50.44
25638;BME280;13496;51.040;13.680;2023-01-31T00:34:19;99710.88;;;14.64;48.85
25638;BME280;13496;51.040;13.680;2023-01-31T00:39:21;99704.69;;;14.65;49.95
25638;BME280;13496;51.040;13.680;2023-01-31T00:44:23;99715.94;;;14.66;48.47
25638;BME280;13496;51.040;13.680;2023-01-31T00:49:25;99716.59;;;14.60;48.07
25638;BME280;13496;51.040;13.680;2023-01-31T00:54:26;99730.00;;;14.65;50.81
25638;BME280;13496;51.040;13.680;2023-01-31T00:59:29;99723.94;;;14.64;49.81
25638;BME280;13496;51.040;13.680;2023-01-31T01:04:31;99748.09;;;14.66;49.93
25638;BME280;13496;51.040;13.680;2023-01-31T01:09:33;99761.97;;;14.59;50.46
25638;BME280;13496;51.040;13.680;2023-01-31T01:14:35;99751.53;;;14.59;50.06
25638;BME280;13496;51.040;13.680;2023-01-31T01:19:38;99763.09;;;14.64;51.15
25638;BME280;13496;51.040;13.680;2023-01-31T01:24:42;99775.00;;;14.59;48.96
25638;BME280;13496;51.040;13.680;2023-01-31T01:29:43;99796.03;;;14.57;47.52
25638;BME280;13496;51.040;13.680;2023-01-31T01:34:45;99796.53;;;14.61;50.49
25638;BME280;13496;51.040;13.680;2023-01-31T01:39:49;99794.09;;;14.59;50.68
25638;BME280;13496;51.040;13.680;2023-01-31T01:44:56;99798.81;;;14.56;50.65
25638;BME280;13496;51.040;13.680;2023-01-31T01:50:17;99804.53;;;14.59;49.78
25638;BME280;13496;51.040;13.680;2023-01-31T01:55:39;99806.03;;;14.62;51.10
25638;BME280;13496;51.040;13.680;2023-01-31T02:00:44;99821.03;;;14.60;51.03
25638;BME280;13496;51.040;13.680;2023-01-31T02:05:51;99821.53;;;14.63;51.33
25638;BME280;13496;51.040;13.680;2023-01-31T02:11:22;99827.06;;;14.60;50.54
25638;BME280;13496;51.040;13.680;2023-01-31T02:16:24;99833.59;;;14.64;51.30
25638;BME280;13496;51.040;13.680;2023-01-31T02:27:06;99823.50;;;14.61;51.61
25638;BME280;13496;51.040;13.680;2023-01-31T02:32:47;99838.81;;;14.64;50.22
25638;BME280;13496;51.040;13.680;2023-01-31T02:43:24;99868.03;;;14.60;51.50
25638;BME280;13496;51.040;13.680;2023-01-31T02:48:45;99871.63;;;14.59;50.27
25638;BME280;13496;51.040;13.680;2023-01-31T02:53:59;99875.72;;;14.61;51.42
25638;BME280;13496;51.040;13.680;2023-01-31T02:59:08;99884.38;;;14.62;51.60
25638;BME280;13496;51.040;13.680;2023-01-31T03:04:13;99898.38;;;14.61;51.10
25638;BME280;13496;51.040;13.680;2023-01-31T03:09:23;99921.41;;;14.65;51.58
25638;BME280;13496;51.040;13.680;2023-01-31T03:14:34;99931.06;;;14.65;50.95
25638;BME280;13496;51.040;13.680;2023-01-31T03:20:02;99937.53;;;14.61;50.78
25638;BME280;13496;51.040;13.680;2023-01-31T03:25:09;99947.34;;;14.59;50.64
25638;BME280;13496;51.040;13.680;2023-01-31T03:30:17;99951.56;;;14.60;50.72
25638;BME280;13496;51.040;13.680;2023-01-31T03:35:23;99954.19;;;14.60;50.46
25638;BME280;13496;51.040;13.680;2023-01-31T03:40:30;99974.94;;;14.61;51.23
25638;BME280;13496;51.040;13.680;2023-01-31T03:45:41;99979.31;;;14.61;50.89
25638;BME280;13496;51.040;13.680;2023-01-31T03:50:51;99980.16;;;14.61;51.42
25638;BME280;13496;51.040;13.680;2023-01-31T03:56:17;99967.41;;;14.58;49.98
25638;BME280;13496;51.040;13.680;2023-01-31T04:01:22;99975.75;;;14.62;51.12
25638;BME280;13496;51.040;13.680;2023-01-31T04:06:27;99978.50;;;14.60;51.12
25638;BME280;13496;51.040;13.680;2023-01-31T04:11:35;99954.88;;;14.62;50.45
25638;BME280;13496;51.040;13.680;2023-01-31T04:16:37;99967.09;;;14.61;51.40
25638;BME280;13496;51.040;13.680;2023-01-31T04:21:39;99968.88;;;14.61;51.47
25638;BME280;13496;51.040;13.680;2023-01-31T04:26:40;99982.59;;;14.63;51.46
25638;BME280;13496;51.040;13.680;2023-01-31T04:31:42;99985.81;;;14.57;50.21
25638;BME280;13496;51.040;13.680;2023-01-31T04:36:44;99985.22;;;14.63;51.42
25638;BME280;13496;51.040;13.680;2023-01-31T04:41:45;99984.53;;;14.61;51.81
25638;BME280;13496;51.040;13.680;2023-01-31T04:46:47;99996.63;;;14.62;51.56
25638;BME280;13496;51.040;13.680;2023-01-31T04:51:48;100005.28;;;14.62;51.61
25638;BME280;13496;51.040;13.680;2023-01-31T04:56:50;100007.91;;;14.62;51.68
25638;BME280;13496;51.040;13.680;2023-01-31T05:01:52;100010.50;;;14.62;51.53
25638;BME280;13496;51.040;13.680;2023-01-31T05:06:53;100004.16;;;14.65;51.63
25638;BME280;13496;51.040;13.680;2023-01-31T05:11:55;100009.38;;;14.65;51.66
25638;BME280;13496;51.040;13.680;2023-01-31T05:16:57;100006.28;;;14.61;51.61
25638;BME280;13496;51.040;13.680;2023-01-31T05:21:58;100005.94;;;14.64;51.73
25638;BME280;13496;51.040;13.680;2023-01-31T05:27:01;100013.13;;;14.62;51.81
25638;BME280;13496;51.040;13.680;2023-01-31T05:32:02;100020.13;;;14.62;51.55
25638;BME280;13496;51.040;13.680;2023-01-31T05:37:04;100028.78;;;14.62;52.11
25638;BME280;13496;51.040;13.680;2023-01-31T05:42:06;100018.03;;;14.65;52.05
25638;BME280;13496;51.040;13.680;2023-01-31T05:47:08;100014.44;;;14.66;52.17
25638;BME280;13496;51.040;13.680;2023-01-31T05:52:09;100019.97;;;14.63;52.10
25638;BME280;13496;51.040;13.680;2023-01-31T05:57:11;100017.22;;;14.65;52.13
25638;BME280;13496;51.040;13.680;2023-01-31T06:02:14;100020.97;;;14.62;52.10
25638;BME280;13496;51.040;13.680;2023-01-31T06:07:16;100023.25;;;14.65;52.04
25638;BME280;13496;51.040;13.680;2023-01-31T06:12:18;100025.06;;;14.65;51.91
25638;BME280;13496;51.040;13.680;2023-01-31T06:17:19;100022.59;;;14.63;52.17
25638;BME280;13496;51.040;13.680;2023-01-31T06:22:24;100031.22;;;14.64;50.92
25638;BME280;13496;51.040;13.680;2023-01-31T06:27:25;100033.19;;;14.62;51.90
25638;BME280;13496;51.040;13.680;2023-01-31T06:32:27;100038.13;;;14.65;52.33
25638;BME280;13496;51.040;13.680;2023-01-31T06:37:29;100046.75;;;14.65;52.24
25638;BME280;13496;51.040;13.680;2023-01-31T06:42:30;100059.00;;;14.65;51.56
25638;BME280;13496;51.040;13.680;2023-01-31T06:47:32;100053.09;;;14.63;51.30
25638;BME280;13496;51.040;13.680;2023-01-31T06:52:34;100038.25;;;14.63;52.26
25638;BME280;13496;51.040;13.680;2023-01-31T06:57:35;100038.13;;;14.65;51.46
25638;BME280;13496;51.040;13.680;2023-01-31T07:02:37;100040.88;;;14.63;52.05
25638;BME280;13496;51.040;13.680;2023-01-31T07:07:39;100049.22;;;14.67;52.34
25638;BME280;13496;51.040;13.680;2023-01-31T07:12:40;100059.00;;;14.65;51.80
25638;BME280;13496;51.040;13.680;2023-01-31T07:17:42;100067.34;;;14.68;52.16
25638;BME280;13496;51.040;13.680;2023-01-31T07:22:53;100060.63;;;14.66;52.35
25638;BME280;13496;51.040;13.680;2023-01-31T07:27:55;100069.97;;;14.68;51.40
25638;BME280;13496;51.040;13.680;2023-01-31T07:32:56;100063.59;;;14.71;51.53
25638;BME280;13496;51.040;13.680;2023-01-31T07:37:58;100073.72;;;14.74;52.31
25638;BME280;13496;51.040;13.680;2023-01-31T07:43:00;100077.63;;;14.70;51.38
25638;BME280;13496;51.040;13.680;2023-01-31T07:48:01;100080.06;;;14.71;51.38
25638;BME280;13496;51.040;13.680;2023-01-31T07:53:03;100087.41;;;14.68;51.18
25638;BME280;13496;51.040;13.680;2023-01-31T07:58:07;100084.59;;;14.61;48.91
25638;BME280;13496;51.040;13.680;2023-01-31T08:03:24;100080.53;;;14.67;50.70
25638;BME280;13496;51.040;13.680;2023-01-31T08:08:36;100079.25;;;14.71;51.24
25638;BME280;13496;51.040;13.680;2023-01-31T08:13:38;100078.44;;;14.70;51.38
25638;BME280;13496;51.040;13.680;2023-01-31T08:18:40;100079.63;;;14.76;51.40
25638;BME280;13496;51.040;13.680;2023-01-31T08:23:42;100083.09;;;14.85;50.96
25638;BME280;13496;51.040;13.680;2023-01-31T08:28:45;100081.00;;;14.88;51.85
25638;BME280;13496;51.040;13.680;2023-01-31T08:33:47;100094.38;;;14.85;50.38
25638;BME280;13496;51.040;13.680;2023-01-31T08:38:52;100079.28;;;14.79;50.32
25638;BME280;13496;51.040;13.680;2023-01-31T08:43:54;100082.88;;;14.78;50.96
25638;BME280;13496;51.040;13.680;2023-01-31T08:48:57;100064.31;;;14.81;50.66
25638;BME280;13496;51.040;13.680;2023-01-31T08:53:59;100073.63;;;14.84;51.25
25638;BME280;13496;51.040;13.680;2023-01-31T08:59:01;100079.97;;;14.81;50.15
25638;BME280;13496;51.040;13.680;2023-01-31T09:04:03;100072.81;;;14.83;50.06
25638;BME280;13496;51.040;13.680;2023-01-31T09:09:04;100062.69;;;14.80;50.15
25638;BME280;13496;51.040;13.680;2023-01-31T09:14:06;100067.44;;;14.85;50.39
25638;BME280;13496;51.040;13.680;2023-01-31T09:19:08;100057.16;;;14.83;50.44
25638;BME280;13496;51.040;13.680;2023-01-31T09:24:09;100059.41;;;14.86;51.52
25638;BME280;13496;51.040;13.680;2023-01-31T09:29:12;100059.78;;;14.91;51.22
25638;BME280;13496;51.040;13.680;2023-01-31T09:34:13;100057.34;;;14.98;50.91
25638;BME280;13496;51.040;13.680;2023-01-31T09:39:17;100051.31;;;14.97;48.66
25638;BME280;13496;51.040;13.680;2023-01-31T09:44:22;100042.16;;;15.01;48.80
25638;BME280;13496;51.040;13.680;2023-01-31T09:49:29;100030.59;;;15.04;50.32
25638;BME280;13496;51.040;13.680;2023-01-31T09:54:36;100025.75;;;15.09;50.28
25638;BME280;13496;51.040;13.680;2023-01-31T09:59:49;100019.34;;;15.12;50.34
25638;BME280;13496;51.040;13.680;2023-01-31T10:10:53;100015.94;;;15.19;50.02
25638;BME280;13496;51.040;13.680;2023-01-31T10:15:59;99996.22;;;15.25;50.13
25638;BME280;13496;51.040;13.680;2023-01-31T10:21:06;100013.84;;;15.23;50.33
25638;BME280;13496;51.040;13.680;2023-01-31T10:26:15;99997.81;;;15.18;49.75
25638;BME280;13496;51.040;13.680;2023-01-31T10:36:39;99989.50;;;15.22;50.42
25638;BME280;13496;51.040;13.680;2023-01-31T10:41:44;99965.47;;;15.27;50.18
25638;BME280;13496;51.040;13.680;2023-01-31T10:46:48;99974.31;;;15.26;50.41
25638;BME280;13496;51.040;13.680;2023-01-31T10:57:26;99939.69;;;15.24;50.52
25638;BME280;13496;51.040;13.680;2023-01-31T11:02:28;99939.19;;;15.20;49.82
25638;BME280;13496;51.040;13.680;2023-01-31T11:07:31;99931.69;;;15.25;49.99
25638;BME280;13496;51.040;13.680;2023-01-31T11:12:52;99907.97;;;15.27;49.59
25638;BME280;13496;51.040;13.680;2023-01-31T11:17:58;99903.75;;;15.26;49.85
25638;BME280;13496;51.040;13.680;2023-01-31T11:23:02;99895.91;;;15.26;49.77
25638;BME280;13496;51.040;13.680;2023-01-31T11:38:40;99860.59;;;15.30;48.85
25638;BME280;13496;51.040;13.680;2023-01-31T11:43:41;99857.84;;;15.32;49.18
25638;BME280;13496;51.040;13.680;2023-01-31T11:48:44;99851.31;;;15.36;48.98
25638;BME280;13496;51.040;13.680;2023-01-31T11:53:48;99849.31;;;15.38;49.86
25638;BME280;13496;51.040;13.680;2023-01-31T11:58:57;99844.09;;;15.38;49.46
25638;BME280;13496;51.040;13.680;2023-01-31T12:04:04;99834.13;;;15.41;49.56
25638;BME280;13496;51.040;13.680;2023-01-31T12:09:21;99819.75;;;15.37;50.09
25638;BME280;13496;51.040;13.680;2023-01-31T12:14:34;99820.25;;;15.41;49.53
25638;BME280;13496;51.040;13.680;2023-01-31T12:19:52;99819.41;;;15.48;49.46
25638;BME280;13496;51.040;13.680;2023-01-31T12:25:03;99806.69;;;15.54;48.92
25638;BME280;13496;51.040;13.680;2023-01-31T12:30:24;99796.56;;;15.51;49.18
25638;BME280;13496;51.040;13.680;2023-01-31T12:35:56;99797.88;;;15.46;49.15
25638;BME280;13496;51.040;13.680;2023-01-31T12:41:40;99788.72;;;15.34;49.53
25638;BME280;13496;51.040;13.680;2023-01-31T12:46:59;99791.19;;;15.36;49.68
25638;BME280;13496;51.040;13.680;2023-01-31T13:02:38;99730.25;;;15.35;49.80
25638;BME280;13496;51.040;13.680;2023-01-31T13:07:47;99722.41;;;15.35;50.09
25638;BME280;13496;51.040;13.680;2023-01-31T13:12:50;99724.88;;;15.29;49.12
25638;BME280;13496;51.040;13.680;2023-01-31T13:17:58;99727.97;;;15.32;49.43
25638;BME280;13496;51.040;13.680;2023-01-31T13:23:05;99728.91;;;15.31;49.85
25638;BME280;13496;51.040;13.680;2023-01-31T13:28:17;99706.72;;;15.27;48.60
25638;BME280;13496;51.040;13.680;2023-01-31T13:38:26;99670.31;;;15.25;50.09
25638;BME280;13496;51.040;13.680;2023-01-31T13:43:31;99651.72;;;15.20;49.85
25638;BME280;13496;51.040;13.680;2023-01-31T13:48:41;99645.00;;;15.18;50.10
25638;BME280;13496;51.040;13.680;2023-01-31T13:53:53;99632.28;;;15.15;50.23
25638;BME280;13496;51.040;13.680;2023-01-31T13:58:57;99622.81;;;15.14;50.22
25638;BME280;13496;51.040;13.680;2023-01-31T14:56:57;99575.47;;;15.09;50.07
25638;BME280;13496;51.040;13.680;2023-01-31T15:13:32;99573.03;;;15.07;49.69
25638;BME280;13496;51.040;13.680;2023-01-31T15:18:35;99566.28;;;15.13;50.50
25638;BME280;13496;51.040;13.680;2023-01-31T15:23:39;99573.84;;;15.08;49.40
25638;BME280;13496;51.040;13.680;2023-01-31T15:28:43;99564.03;;;15.10;49.34
25638;BME280;13496;51.040;13.680;2023-01-31T15:33:50;99575.47;;;15.09;48.79
25638;BME280;13496;51.040;13.680;2023-01-31T15:38:53;99567.00;;;15.07;49.54
25638;BME280;13496;51.040;13.680;2023-01-31T15:44:10;99561.75;;;15.07;48.97
25638;BME280;13496;51.040;13.680;2023-01-31T15:54:28;99578.09;;;15.00;49.00
25638;BME280;13496;51.040;13.680;2023-01-31T15:59:31;99585.44;;;15.05;50.67
25638;BME280;13496;51.040;13.680;2023-01-31T16:04:38;99583.00;;;15.04;49.73
25638;BME280;13496;51.040;13.680;2023-01-31T16:09:40;99577.28;;;15.00;50.67
25638;BME280;13496;51.040;13.680;2023-01-31T16:14:45;99581.84;;;14.98;49.09
25638;BME280;13496;51.040;13.680;2023-01-31T16:19:48;99579.09;;;14.99;49.74
25638;BME280;13496;51.040;13.680;2023-01-31T16:24:58;99571.25;;;14.99;50.89
25638;BME280;13496;51.040;13.680;2023-01-31T16:30:00;99583.84;;;14.96;49.90
25638;BME280;13496;51.040;13.680;2023-01-31T16:35:17;99586.13;;;14.99;49.51
25638;BME280;13496;51.040;13.680;2023-01-31T16:40:50;99585.47;;;14.97;49.99
25638;BME280;13496;51.040;13.680;2023-01-31T16:45:55;99571.94;;;14.93;50.35
25638;BME280;13496;51.040;13.680;2023-01-31T16:51:00;99569.16;;;14.95;49.68
25638;BME280;13496;51.040;13.680;2023-01-31T16:56:20;99571.94;;;14.93;51.00
25638;BME280;13496;51.040;13.680;2023-01-31T17:01:32;99597.22;;;14.93;50.80
25638;BME280;13496;51.040;13.680;2023-01-31T17:06:34;99577.16;;;14.93;49.96
25638;BME280;13496;51.040;13.680;2023-01-31T17:11:36;99577.16;;;14.93;50.74
25638;BME280;13496;51.040;13.680;2023-01-31T17:16:38;99583.69;;;14.89;50.07
25638;BME280;13496;51.040;13.680;2023-01-31T17:21:41;99601.16;;;14.89;50.40
25638;BME280;13496;51.040;13.680;2023-01-31T17:26:43;99608.53;;;14.85;49.88
25638;BME280;13496;51.040;13.680;2023-01-31T17:31:45;99602.63;;;14.91;50.88
25638;BME280;13496;51.040;13.680;2023-01-31T17:36:46;99597.09;;;14.86;49.07
25638;BME280;13496;51.040;13.680;2023-01-31T17:41:48;99594.47;;;14.86;50.80
25638;BME280;13496;51.040;13.680;2023-01-31T17:46:50;99601.16;;;14.89;50.90
25638;BME280;13496;51.040;13.680;2023-01-31T17:51:51;99588.28;;;14.87;50.94
25638;BME280;13496;51.040;13.680;2023-01-31T17:56:53;99583.22;;;14.86;49.70
25638;BME280;13496;51.040;13.680;2023-01-31T18:01:55;99579.47;;;14.88;51.08
25638;BME280;13496;51.040;13.680;2023-01-31T18:06:56;99578.81;;;14.86;50.92
25638;BME280;13496;51.040;13.680;2023-01-31T18:11:58;99593.50;;;14.87;51.19
25638;BME280;13496;51.040;13.680;2023-01-31T18:17:00;99591.06;;;14.86;50.76
25638;BME280;13496;51.040;13.680;2023-01-31T18:22:01;99545.66;;;14.87;51.20
25638;BME280;13496;51.040;13.680;2023-01-31T18:27:03;99564.13;;;14.85;50.78
25638;BME280;13496;51.040;13.680;2023-01-31T18:32:05;99563.31;;;14.85;50.91
25638;BME280;13496;51.040;13.680;2023-01-31T18:37:08;99552.06;;;14.84;50.96
25638;BME280;13496;51.040;13.680;2023-01-31T18:42:18;99545.84;;;14.85;51.09
25638;BME280;13496;51.040;13.680;2023-01-31T18:47:20;99552.06;;;14.84;50.30
25638;BME280;13496;51.040;13.680;2023-01-31T18:52:21;99539.81;;;14.85;50.06
25638;BME280;13496;51.040;13.680;2023-01-31T18:57:23;99546.50;;;14.87;50.91
25638;BME280;13496;51.040;13.680;2023-01-31T19:02:24;99552.19;;;14.83;51.15
25638;BME280;13496;51.040;13.680;2023-01-31T19:07:26;99543.22;;;14.85;50.78
25638;BME280;13496;51.040;13.680;2023-01-31T19:12:28;99547.97;;;14.82;50.63
25638;BME280;13496;51.040;13.680;2023-01-31T19:17:30;99539.00;;;14.84;51.10
25638;BME280;13496;51.040;13.680;2023-01-31T19:22:31;99537.38;;;14.83;51.21
25638;BME280;13496;51.040;13.680;2023-01-31T19:27:33;99531.00;;;14.77;49.81
25638;BME280;13496;51.040;13.680;2023-01-31T19:32:35;99544.72;;;14.80;49.93
25638;BME280;13496;51.040;13.680;2023-01-31T19:37:37;99520.72;;;14.84;50.68
25638;BME280;13496;51.040;13.680;2023-01-31T19:42:38;99529.53;;;14.83;50.96
25638;BME280;13496;51.040;13.680;2023-01-31T19:47:42;99519.09;;;14.83;49.78
25638;BME280;13496;51.040;13.680;2023-01-31T19:52:44;99522.50;;;14.84;49.95
25638;BME280;13496;51.040;13.680;2023-01-31T19:57:46;99531.16;;;14.84;51.18
25638;BME280;13496;51.040;13.680;2023-01-31T20:02:47;99550.06;;;14.86;50.72
25638;BME280;13496;51.040;13.680;2023-01-31T20:07:49;99553.19;;;14.82;49.65
25638;BME280;13496;51.040;13.680;2023-01-31T20:12:51;99566.09;;;14.83;50.98
25638;BME280;13496;51.040;13.680;2023-01-31T20:17:53;99555.97;;;14.80;50.70
25638;BME280;13496;51.040;13.680;2023-01-31T20:22:55;99554.00;;;14.82;50.37
25638;BME280;13496;51.040;13.680;2023-01-31T20:27:57;99545.22;;;14.83;51.17
25638;BME280;13496;51.040;13.680;2023-01-31T20:32:58;99579.16;;;14.83;51.11
25638;BME280;13496;51.040;13.680;2023-01-31T20:38:00;99547.97;;;14.82;51.15
25638;BME280;13496;51.040;13.680;2023-01-31T20:43:01;99541.13;;;14.81;50.62
25638;BME280;13496;51.040;13.680;2023-01-31T20:48:03;99536.72;;;14.81;51.44
25638;BME280;13496;51.040;13.680;2023-01-31T20:53:15;99541.75;;;14.83;50.89
25638;BME280;13496;51.040;13.680;2023-01-31T20:58:17;99531.50;;;14.81;51.34
25638;BME280;13496;51.040;13.680;2023-01-31T21:03:19;99535.72;;;14.82;51.00
25638;BME280;13496;51.040;13.680;2023-01-31T21:08:20;99552.19;;;14.83;50.87
25638;BME280;13496;51.040;13.680;2023-01-31T21:13:24;99573.94;;;14.83;50.28
25638;BME280;13496;51.040;13.680;2023-01-31T21:18:31;99578.16;;;14.84;51.14
25638;BME280;13496;51.040;13.680;2023-01-31T21:23:37;99571.31;;;14.83;51.27
25638;BME280;13496;51.040;13.680;2023-01-31T21:28:39;99569.69;;;14.82;50.17
25638;BME280;13496;51.040;13.680;2023-01-31T21:33:51;99582.59;;;14.84;51.39
25638;BME280;13496;51.040;13.680;2023-01-31T21:38:53;99558.25;;;14.83;50.96
25638;BME280;13496;51.040;13.680;2023-01-31T21:43:55;99582.72;;;14.82;50.29
25638;BME280;13496;51.040;13.680;2023-01-31T21:48:58;99591.38;;;14.83;51.00
25638;BME280;13496;51.040;13.680;2023-01-31T21:54:00;99587.00;;;14.83;51.27
25638;BME280;13496;51.040;13.680;2023-01-31T21:59:02;99592.38;;;14.82;50.05
25638;BME280;13496;51.040;13.680;2023-01-31T22:04:04;99581.78;;;14.83;51.37
25638;BME280;13496;51.040;13.680;2023-01-31T22:09:09;99574.09;;;14.82;51.51
25638;BME280;13496;51.040;13.680;2023-01-31T22:14:12;99570.84;;;14.80;50.77
25638;BME280;13496;51.040;13.680;2023-01-31T22:19:15;99560.22;;;14.81;51.33
25638;BME280;13496;51.040;13.680;2023-01-31T22:24:17;99567.88;;;14.83;51.15
25638;BME280;13496;51.040;13.680;2023-01-31T22:29:18;99554.81;;;14.83;51.04
25638;BME280;13496;51.040;13.680;2023-01-31T22:34:20;99552.38;;;14.81;51.28
25638;BME280;13496;51.040;13.680;2023-01-31T22:39:21;99539.50;;;14.80;50.93
25638;BME280;13496;51.040;13.680;2023-01-31T22:44:23;99543.06;;;14.79;50.79
25638;BME280;13496;51.040;13.680;2023-01-31T22:49:25;99559.22;;;14.82;51.13
25638;BME280;13496;51.040;13.680;2023-01-31T22:54:26;99566.44;;;14.80;51.15
25638;BME280;13496;51.040;13.680;2023-01-31T22:59:28;99578.81;;;14.78;50.89
25638;BME280;13496;51.040;13.680;2023-01-31T23:04:30;99572.47;;;14.81;51.20
25638;BME280;13496;51.040;13.680;2023-01-31T23:09:31;99585.03;;;14.77;50.10
25638;BME280;13496;51.040;13.680;2023-01-31T23:14:33;99571.97;;;14.77;50.97
25638;BME280;13496;51.040;13.680;2023-01-31T23:19:34;99579.16;;;14.75;49.83
25638;BME280;13496;51.040;13.680;2023-01-31T23:24:38;99584.88;;;14.79;51.33
25638;BME280;13496;51.040;13.680;2023-01-31T23:29:39;99576.06;;;14.80;51.01
25638;BME280;13496;51.040;13.680;2023-01-31T23:34:41;99586.50;;;14.80;50.68
25638;BME280;13496;51.040;13.680;2023-01-31T23:39:43;99590.91;;;14.79;51.28
25638;BME280;13496;51.040;13.680;2023-01-31T23:44:44;99590.25;;;14.77;50.69
25638;BME280;13496;51.040;13.680;2023-01-31T23:49:46;99584.38;;;14.75;49.42
25638;BME280;13496;51.040;13.680;2023-01-31T23:54:48;99592.88;;;14.77;49.61
25638;BME280;13496;51.040;13.680;2023-01-31T23:59:49;99601.69;;;14.76;50.54
